• Join FlightAware (Why Join?)
  • Login
  • US Flag 
12:29AM EDT


 

Airport Tracker/Info


-or-


 

Live Flight TrackerFlight Track Log ✈ TYR394 ✈ 17-Apr-2013 ✈ LEBL / BCN - LOWW / VIE

Flight Track Log - Related Links

Times and Time Zones

All times are in EDT time to prevent confusion due to time zone crossing. See the TYR394 flight status page for this flight to view local times or setup timezone preferences in your user account.

Time Position Orientation Groundspeed Altitude Reporting Facility
EDT Latitude Longitude Course Direction KTS MPH feet Rate Location/Type
02:51PM 41.7414 2.8327 52° Northeast  Level Estimated
02:52PM 41.8045 2.9413 52° Northeast  Level Estimated
02:53PM 41.8675 3.0501 52° Northeast  Level Estimated
02:54PM 41.9303 3.1591 52° Northeast  Level Estimated
02:55PM 41.9931 3.2683 52° Northeast  Level Estimated
02:56PM 42.0558 3.3778 52° Northeast  Level Estimated
02:57PM 42.1183 3.4874 52° Northeast  Level Estimated
02:58PM 42.1808 3.5973 52° Northeast  Level Estimated
02:59PM 42.2431 3.7074 53° Northeast  Level Estimated
03:00PM 42.3054 3.8177 53° Northeast  Level Estimated
03:01PM 42.3675 3.9283 53° Northeast  Level Estimated
03:02PM 42.4295 4.0390 53° Northeast  Level Estimated
03:03PM 42.4914 4.1500 53° Northeast  Level Estimated
03:04PM 42.5532 4.2612 53° Northeast  Level Estimated
03:05PM 42.6149 4.3726 53° Northeast  Level Estimated
03:06PM 42.6766 4.4842 53° Northeast  Level Estimated
03:07PM 42.7380 4.5961 53° Northeast  Level Estimated
03:08PM 42.7994 4.7082 53° Northeast  Level Estimated
03:09PM 42.8607 4.8205 53° Northeast  Level Estimated
03:10PM 42.9218 4.9330 53° Northeast  Level Estimated
03:11PM 42.9829 5.0457 53° Northeast  Level Estimated
03:12PM 43.0438 5.1587 54° Northeast  Level Estimated
03:13PM 43.1047 5.2719 54° Northeast  Level Estimated
03:14PM 43.1654 5.3853 54° Northeast  Level Estimated
03:15PM 43.2260 5.4990 54° Northeast  Level Estimated
03:16PM 43.2865 5.6128 54° Northeast  Level Estimated
03:17PM 43.3469 5.7269 54° Northeast  Level Estimated
03:18PM 43.4071 5.8412 54° Northeast  Level Estimated
03:19PM 43.4673 5.9558 54° Northeast  Level Estimated
03:20PM 43.5273 6.0706 54° Northeast  Level Estimated
03:21PM 43.5872 6.1856 54° Northeast  Level Estimated
03:22PM 43.6470 6.3008 54° Northeast  Level Estimated
03:23PM 43.7067 6.4163 54° Northeast  Level Estimated
03:24PM 43.7663 6.5320 54° Northeast  Level Estimated
03:25PM 43.8258 6.6479 55° Northeast  Level Estimated
03:26PM 43.8851 6.7641 55° Northeast  Level Estimated
03:27PM 43.9443 6.8805 55° Northeast  Level Estimated
03:28PM 44.0034 6.9971 55° Northeast  Level Estimated
03:29PM 44.0624 7.1139 55° Northeast  Level Estimated
03:30PM 44.1213 7.2310 55° Northeast  Level Estimated
03:31PM 44.1800 7.3484 55° Northeast  Level Estimated
03:32PM 44.2386 7.4659 55° Northeast  Level Estimated
03:33PM 44.2971 7.5837 55° Northeast  Level Estimated
03:34PM 44.3555 7.7017 55° Northeast  Level Estimated
03:35PM 44.4138 7.8200 55° Northeast  Level Estimated
03:36PM 44.4719 7.9385 55° Northeast  Level Estimated
03:37PM 44.5299 8.0572 56° Northeast  Level Estimated
03:38PM 44.5878 8.1762 56° Northeast  Level Estimated
03:39PM 44.6456 8.2954 56° Northeast  Level Estimated
03:40PM 44.7032 8.4148 56° Northeast  Level Estimated
03:41PM 44.7607 8.5345 56° Northeast  Level Estimated
03:42PM 44.8181 8.6544 56° Northeast  Level Estimated
03:43PM 44.8754 8.7746 56° Northeast  Level Estimated
03:44PM 44.9325 8.8950 56° Northeast  Level Estimated
03:45PM 44.9896 9.0156 56° Northeast  Level Estimated
03:46PM 45.0465 9.1365 56° Northeast  Level Estimated
03:47PM 45.1032 9.2576 56° Northeast  Level Estimated
03:48PM 45.1598 9.3789 56° Northeast  Level Estimated
03:49PM 45.2163 9.5005 57° Northeast  Level Estimated
03:50PM 45.2727 9.6224 57° Northeast  Level Estimated
03:51PM 45.3289 9.7444 57° Northeast  Level Estimated
03:52PM 45.3851 9.8668 57° Northeast  Level Estimated
03:53PM 45.4410 9.9893 57° Northeast  Level Estimated
03:54PM 45.4969 10.1121 57° Northeast  Level Estimated
03:55PM 45.5526 10.2352 57° Northeast  Level Estimated
03:56PM 45.6082 10.3585 57° Northeast  Level Estimated
03:57PM 45.6637 10.4820 57° Northeast  Level Estimated
03:58PM 45.7190 10.6058 57° Northeast  Level Estimated
03:59PM 45.7742 10.7298 57° Northeast  Level Estimated
04:00PM 45.8292 10.8541 58° Northeast  Level Estimated
04:01PM 45.8841 10.9786 58° Northeast  Level Estimated
04:02PM 45.9389 11.1034 58° Northeast  Level Estimated
04:03PM 45.9936 11.2284 58° Northeast  Level Estimated
04:04PM 46.0481 11.3537 58° Northeast  Level Estimated
04:05PM 46.1025 11.4792 58° Northeast  Level Estimated
04:06PM 46.1567 11.6049 58° Northeast  Level Estimated
04:07PM 46.2108 11.7309 58° Northeast  Level Estimated
04:08PM 46.2648 11.8572 58° Northeast  Level Estimated
04:09PM 46.3186 11.9837 58° Northeast  Level Estimated
04:10PM 46.3722 12.1104 58° Northeast  Level Estimated
04:11PM 46.4258 12.2374 59° Northeast  Level Estimated
04:12PM 46.4792 12.3647 59° Northeast  Level Estimated
04:13PM 46.5325 12.4922 59° Northeast  Level Estimated
04:14PM 46.5856 12.6199 59° Northeast  Level Estimated
04:15PM 46.6385 12.7479 59° Northeast  Level Estimated
04:16PM 46.6914 12.8762 59° Northeast  Level Estimated
04:17PM 46.7440 13.0047 59° Northeast  Level Estimated
04:18PM 46.7966 13.1334 59° Northeast  Level Estimated
04:19PM 46.8490 13.2624 59° Northeast  Level Estimated
04:20PM 46.9012 13.3917 59° Northeast  Level Estimated
04:21PM 46.9534 13.5212 59° Northeast  Level Estimated
04:22PM 47.0053 13.6509 60° Northeast  Level Estimated
04:23PM 47.0571 13.7809 60° Northeast  Level Estimated
04:24PM 47.1088 13.9112 60° Northeast  Level Estimated
04:25PM 47.1603 14.0417 60° Northeast  Level Estimated
04:26PM 47.2117 14.1725 60° Northeast  Level Estimated
04:27PM 47.2629 14.3035 60° Northeast  Level Estimated
04:28PM 47.3140 14.4348 60° Northeast  Level Estimated
04:29PM 47.3649 14.5663 60° Northeast  Level Estimated
04:30PM 47.4157 14.6981 60° Northeast  Level Estimated
04:31PM 47.4663 14.8301 60° Northeast  Level Estimated
04:32PM 47.5168 14.9624 61° Northeast  Level Estimated
04:33PM 47.5671 15.0949 61° Northeast  Level Estimated
04:34PM 47.6172 15.2277 61° Northeast  Level Estimated
04:35PM 47.6672 15.3608 61° Northeast  Level Estimated
04:36PM 47.7171 15.4941 61° Northeast  Level Estimated
04:37PM 47.7668 15.6277 61° Northeast  Level Estimated
04:38PM 47.8163 15.7615 61° Northeast  Level Estimated
04:39PM 47.8657 15.8956 61° Northeast  Level Estimated
04:40PM 47.9149 16.0299 61° Northeast  Level Estimated
04:41PM 47.9640 16.1645 61° Northeast  Level Estimated
04:42PM 48.0129 16.2993 61° Northeast  Level Estimated
04:43PM 48.0617 16.4344 62° Northeast  Level Estimated
04:44PM 48.1103 16.5697 62° Northeast  Level Estimated
04:45PM 48.1103 16.5697 146° Southeast  Level Estimated
04:46PM 48.1103 16.5697 146° Southeast  Level Estimated
04:47PM 48.1103 16.5697 146° Southeast  Level Estimated
04:48PM 48.1103 16.5697 146° Southeast  Level Estimated
04:49PM 48.1103 16.5697 146° Southeast  Level Estimated
04:50PM 48.1103 16.5697 146° Southeast  Level Estimated
04:51PM 48.1103 16.5697 146° Southeast  Level Estimated
04:52PM 48.1103 16.5697 146° Southeast  Level Estimated
04:53PM 48.1103 16.5697 146° Southeast  Level Estimated
04:54PM 48.1103 16.5697 146° Southeast  Level Estimated
04:55PM 48.1103 16.5697 146° Southeast  Level Estimated
04:56PM 48.1103 16.5697 146° Southeast  Level Estimated
04:57PM 48.1103 16.5697 146° Southeast  Level Estimated